Time;durP1;ratioP1;P1;durP2;ratioP2;P2;SDS_P1;SDS_P2;PMS_P1;PMS_P2;Temp;Humidity;BMP_temperature;BMP_pressure;BME280_temperature;BME280_humidity;BME280_pressure;Samples;Min_cycle;Max_cycle;Signal;HPM_P1;HPM_P2
2022/11/18 00:01:07;;;;;;;40.70;19.90;;;;;;;7.45;100.00;95958.31;5027443;28;20489;-63
2022/11/18 00:03:34;;;;;;;38.25;19.80;;;;;;;7.52;100.00;95970.22;5026204;28;20501;-63
2022/11/18 00:06:02;;;;;;;37.40;18.20;;;;;;;7.56;100.00;95970.25;5026202;28;20049;-63
2022/11/18 00:08:29;;;;;;;39.05;19.45;;;;;;;7.24;100.00;95928.56;5027182;28;20058;-55
2022/11/18 00:10:55;;;;;;;43.40;21.52;;;;;;;7.64;100.00;95969.97;5027211;28;20140;-63
2022/11/18 00:16:10;;;;;;;41.08;20.42;;;;;;;7.42;100.00;95943.34;5028036;28;20536;-54
2022/11/18 00:18:38;;;;;;;36.28;17.98;;;;;;;7.59;100.00;95975.81;5027775;28;20069;-63
2022/11/18 00:21:09;;;;;;;29.70;14.88;;;;;;;7.55;100.00;95971.44;5025718;28;20058;-54
2022/11/18 00:23:37;;;;;;;24.85;13.63;;;;;;;7.57;100.00;95972.63;5027504;28;20493;-54
2022/11/18 00:26:07;;;;;;;21.15;12.07;;;;;;;7.51;100.00;95968.63;5027383;28;20053;-54
2022/11/18 00:28:34;;;;;;;27.08;13.82;;;;;;;7.15;100.00;95903.31;5025851;28;20057;-54
2022/11/18 00:31:02;;;;;;;28.05;15.70;;;;;;;7.29;100.00;95972.31;5027279;28;20045;-63
2022/11/18 00:33:29;;;;;;;43.60;18.60;;;;;;;6.12;100.00;95914.06;5025949;28;20163;-64
2022/11/18 00:35:55;;;;;;;41.83;18.88;;;;;;;6.34;100.00;95920.69;5026654;28;20083;-62
2022/11/18 00:38:22;;;;;;;43.85;18.88;;;;;;;6.40;100.00;95921.97;5026932;28;20106;-57
2022/11/18 00:40:49;;;;;;;60.88;22.75;;;;;;;6.90;100.00;95965.53;5025284;28;20496;-54
2022/11/18 00:43:15;;;;;;;42.90;19.75;;;;;;;6.44;100.00;95919.25;5026803;28;20112;-56
2022/11/18 00:45:42;;;;;;;46.85;19.80;;;;;;;6.84;100.00;95964.25;5026676;28;20049;-64
2022/11/18 00:48:09;;;;;;;38.47;18.35;;;;;;;6.58;100.00;95925.75;5026739;28;20144;-64
2022/11/18 00:50:35;;;;;;;36.65;18.55;;;;;;;6.89;100.00;95985.94;5026630;28;20512;-63
2022/11/18 00:53:02;;;;;;;35.10;17.02;;;;;;;6.94;100.00;95976.59;5026759;28;20053;-55
2022/11/18 00:55:29;;;;;;;39.63;19.10;;;;;;;6.72;100.00;95969.97;5025066;28;20057;-63
2022/11/18 00:57:55;;;;;;;31.77;15.90;;;;;;;6.88;100.00;95973.34;5026468;28;20550;-54
2022/11/18 01:00:22;;;;;;;32.20;18.08;;;;;;;6.75;100.00;95985.75;5026588;28;20049;-54
2022/11/18 01:02:48;;;;;;;36.45;20.27;;;;;;;6.79;100.00;95994.84;5025042;28;20049;-55
2022/11/18 01:05:15;;;;;;;36.88;18.80;;;;;;;6.41;100.00;95929.06;5026586;28;20475;-64
2022/11/18 01:07:42;;;;;;;43.10;22.85;;;;;;;6.15;100.00;95887.78;5026311;28;20088;-62
2022/11/18 01:10:08;;;;;;;45.90;24.02;;;;;;;6.53;100.00;95948.06;5026404;28;20046;-64
2022/11/18 01:15:20;;;;;;;36.42;20.00;;;;;;;6.62;100.00;95965.13;5026515;28;20133;-56
2022/11/18 01:17:46;;;;;;;32.58;18.58;;;;;;;6.69;100.00;95987.22;5026337;28;20132;-64
2022/11/18 01:20:14;;;;;;;33.22;16.92;;;;;;;6.74;100.00;95978.66;5026072;28;20049;-64
2022/11/18 01:22:41;;;;;;;36.17;17.65;;;;;;;6.78;100.00;95978.72;5026387;28;20064;-57
2022/11/18 01:25:08;;;;;;;34.42;18.17;;;;;;;6.27;100.00;95892.28;5025948;28;20497;-63
2022/11/18 01:27:34;;;;;;;39.65;20.73;;;;;;;6.62;100.00;95981.63;5024667;28;20119;-64
2022/11/18 01:30:01;;;;;;;38.47;19.50;;;;;;;6.54;100.00;95977.19;5026288;28;20053;-64
2022/11/18 01:32:28;;;;;;;38.83;20.88;;;;;;;6.47;100.00;95963.31;5025915;28;20061;-63
2022/11/18 01:34:54;;;;;;;33.30;18.13;;;;;;;5.95;100.00;95891.81;5025811;28;20527;-63
2022/11/18 01:37:21;;;;;;;33.00;18.05;;;;;;;6.40;100.00;95930.22;5025893;28;20501;-56
2022/11/18 01:39:48;;;;;;;36.50;18.15;;;;;;;6.60;100.00;95964.69;5024611;28;20049;-63
2022/11/18 01:42:16;;;;;;;32.05;17.33;;;;;;;6.45;100.00;95962.88;5025546;28;20061;-64
2022/11/18 01:44:55;;;;;;;40.55;17.75;;;;;;;6.56;100.00;95960.31;5025727;28;20052;-63
2022/11/18 01:47:22;;;;;;;44.67;19.05;;;;;;;6.46;100.00;95967.25;5025470;28;20057;-63
2022/11/18 01:49:49;;;;;;;55.60;20.80;;;;;;;6.41;100.00;95975.00;5025158;28;20050;-55
2022/11/18 01:52:16;;;;;;;58.75;22.38;;;;;;;6.30;100.00;95969.34;5024692;28;20081;-64
2022/11/18 01:54:48;;;;;;;55.83;21.17;;;;;;;5.79;100.00;95896.59;5024977;28;20050;-58
2022/11/18 01:57:20;;;;;;;63.30;20.10;;;;;;;6.11;100.00;95958.44;5024999;28;20111;-60
2022/11/18 01:59:49;;;;;;;76.85;17.30;;;;;;;6.00;100.00;95949.22;5025559;28;20119;-63
2022/11/18 02:02:16;;;;;;;90.93;15.63;;;;;;;6.03;100.00;95951.22;5025265;28;20089;-55
2022/11/18 02:04:46;;;;;;;136.93;16.98;;;;;;;6.20;100.00;95966.44;5025102;28;20758;-64
2022/11/18 02:07:14;;;;;;;68.88;17.13;;;;;;;6.24;100.00;95970.81;5025376;28;20064;-54
2022/11/18 02:09:42;;;;;;;61.58;16.73;;;;;;;6.18;100.00;95967.56;5023899;28;20053;-57
2022/11/18 02:12:09;;;;;;;81.63;17.33;;;;;;;6.26;100.00;95973.19;5025261;28;20745;-66
2022/11/18 02:14:40;;;;;;;58.08;17.35;;;;;;;6.25;100.00;95966.09;5024034;28;20057;-54
2022/11/18 02:17:20;;;;;;;38.63;13.82;;;;;;;6.27;100.00;95964.59;5025068;28;20566;-54
2022/11/18 02:19:47;;;;;;;30.25;13.30;;;;;;;6.26;100.00;95973.97;5023969;28;20061;-55
2022/11/18 02:22:41;;;;;;;19.88;10.05;;;;;;;6.13;100.00;95975.34;5024866;28;20053;-55
2022/11/18 02:25:37;;;;;;;21.83;10.82;;;;;;;6.17;100.00;95967.94;5023781;28;20061;-55
2022/11/18 02:28:25;;;;;;;20.10;10.43;;;;;;;6.15;100.00;95964.75;5025161;28;20057;-56
2022/11/18 02:31:13;;;;;;;25.40;11.13;;;;;;;6.09;100.00;95963.50;5025024;28;20050;-57
2022/11/18 02:34:00;;;;;;;16.92;9.20;;;;;;;6.09;100.00;95958.00;5024874;28;20054;-63
2022/11/18 02:36:34;;;;;;;28.75;8.57;;;;;;;6.16;100.00;95963.63;5024511;28;20574;-54
2022/11/18 02:39:07;;;;;;;28.42;9.70;;;;;;;6.23;100.00;95971.97;5022393;28;20327;-62
2022/11/18 02:41:35;;;;;;;20.98;8.85;;;;;;;5.99;100.00;95964.91;5024748;28;20099;-55
2022/11/18 02:44:12;;;;;;;33.28;10.85;;;;;;;6.15;100.00;95968.31;5023493;28;20061;-54
2022/11/18 02:46:41;;;;;;;27.48;12.20;;;;;;;6.02;100.00;95963.38;5024410;28;20115;-57
2022/11/18 02:49:14;;;;;;;50.42;17.98;;;;;;;5.92;100.00;95959.31;5024984;28;20140;-63
2022/11/18 02:51:43;;;;;;;103.78;18.83;;;;;;;5.95;100.00;95952.25;5024773;28;20053;-58
2022/11/18 02:54:12;;;;;;;67.70;14.90;;;;;;;5.93;100.00;95960.06;5024504;28;20065;-63
2022/11/18 02:56:41;;;;;;;44.33;13.27;;;;;;;5.86;100.00;95948.97;5024431;28;20578;-55
2022/11/18 02:59:07;;;;;;;29.65;12.73;;;;;;;5.17;100.00;95869.66;5025181;28;20111;-63
2022/11/18 03:01:35;;;;;;;31.42;13.70;;;;;;;5.21;100.00;95893.25;5028896;28;20131;-55
2022/11/18 03:04:02;;;;;;;49.20;13.93;;;;;;;5.79;100.00;95976.28;5028877;28;20452;-63
2022/11/18 03:06:40;;;;;;;31.33;12.82;;;;;;;5.76;100.00;95966.03;5027454;28;20103;-63
2022/11/18 03:09:13;;;;;;;39.30;12.75;;;;;;;5.65;100.00;95971.34;5028656;28;20057;-56
2022/11/18 03:12:00;;;;;;;52.17;11.85;;;;;;;5.54;100.00;95980.53;5028628;28;20136;-63
2022/11/18 03:14:42;;;;;;;47.13;11.00;;;;;;;5.43;100.00;95974.03;5028888;28;20604;-55
2022/11/18 03:17:15;;;;;;;53.63;11.73;;;;;;;5.47;100.00;95969.44;5028560;28;20057;-55
2022/11/18 03:20:15;;;;;;;61.55;11.93;;;;;;;5.46;100.00;95968.63;5028154;28;20547;-64
2022/11/18 03:22:52;;;;;;;82.63;27.27;;;;;;;5.51;100.00;95971.09;5028786;28;20116;-55
2022/11/18 03:25:41;;;;;;;119.45;39.17;;;;;;;5.54;100.00;95970.34;5027229;28;20050;-63
2022/11/18 03:28:15;;;;;;;36.28;14.25;;;;;;;5.60;100.00;95962.59;5028340;28;20137;-64
2022/11/18 03:30:49;;;;;;;18.02;10.40;;;;;;;5.45;100.00;95933.28;5028484;28;20092;-63
2022/11/18 03:33:21;;;;;;;16.70;7.97;;;;;;;5.48;100.00;95965.53;5028102;28;20092;-57
2022/11/18 03:35:51;;;;;;;15.88;6.82;;;;;;;5.64;100.00;95963.47;5026622;28;20045;-57
2022/11/18 03:38:28;;;;;;;9.65;6.10;;;;;;;5.72;100.00;95952.22;5026762;28;20115;-56
2022/11/18 03:40:58;;;;;;;11.55;6.30;;;;;;;5.24;100.00;95858.78;5027747;28;20590;-65
2022/11/18 03:43:31;;;;;;;24.70;15.32;;;;;;;5.50;100.00;95919.28;5028017;28;20092;-55
2022/11/18 03:46:05;;;;;;;45.55;31.67;;;;;;;5.92;100.00;95958.50;5027784;28;20137;-63
2022/11/18 03:48:37;;;;;;;27.85;17.85;;;;;;;5.91;100.00;95956.94;5028056;28;20528;-64
2022/11/18 03:51:16;;;;;;;19.63;11.43;;;;;;;5.87;100.00;95964.28;5027624;28;20053;-64
2022/11/18 03:53:51;;;;;;;33.00;11.63;;;;;;;5.73;100.00;95955.78;5028022;28;20111;-63
2022/11/18 03:56:23;;;;;;;32.35;13.80;;;;;;;5.55;100.00;95944.47;5026989;28;20111;-55
2022/11/18 03:58:59;;;;;;;26.17;9.82;;;;;;;5.57;100.00;95964.13;5026424;28;20057;-63
2022/11/18 04:01:42;;;;;;;24.73;14.25;;;;;;;5.55;100.00;95973.88;5027679;28;20139;-65
2022/11/18 04:04:10;;;;;;;19.45;11.82;;;;;;;5.58;100.00;95976.69;5027817;28;20128;-65
2022/11/18 04:06:43;;;;;;;27.17;9.63;;;;;;;5.60;100.00;95979.06;5027383;28;20576;-65
2022/11/18 04:09:19;;;;;;;25.90;10.02;;;;;;;5.30;100.00;95931.44;5027245;28;20127;-56
2022/11/18 04:12:01;;;;;;;25.60;11.13;;;;;;;5.73;100.00;95980.50;5026810;28;20140;-56
2022/11/18 04:14:31;;;;;;;74.40;14.50;;;;;;;5.62;100.00;95971.28;5027410;28;20067;-57
2022/11/18 04:16:57;;;;;;;50.50;12.85;;;;;;;5.40;100.00;95936.34;5026125;28;20107;-65
2022/11/18 04:19:24;;;;;;;65.43;22.52;;;;;;;5.75;100.00;95986.44;5027854;28;20162;-57
2022/11/18 04:21:51;;;;;;;55.80;15.10;;;;;;;5.71;100.00;95985.56;5027814;28;20409;-55
2022/11/18 04:24:17;;;;;;;34.08;14.20;;;;;;;5.72;100.00;95981.66;5027122;28;20081;-63
2022/11/18 04:26:44;;;;;;;23.23;13.73;;;;;;;5.61;100.00;95969.69;5027522;28;20432;-55
2022/11/18 04:29:11;;;;;;;24.63;15.13;;;;;;;5.79;100.00;95987.28;5027624;28;20088;-56
2022/11/18 04:31:37;;;;;;;24.98;14.35;;;;;;;5.43;100.00;95946.59;5027467;28;20127;-57
2022/11/18 04:34:04;;;;;;;28.92;14.45;;;;;;;5.73;100.00;95975.00;5027432;28;20065;-55
2022/11/18 04:36:31;;;;;;;39.90;20.45;;;;;;;5.76;100.00;95993.50;5027139;28;20132;-64
2022/11/18 04:38:57;;;;;;;40.63;21.40;;;;;;;5.69;100.00;95988.66;5027325;28;20077;-64
2022/11/18 04:41:54;;;;;;;30.38;15.25;;;;;;;5.33;100.00;95941.69;5026707;28;20531;-64
2022/11/18 04:44:14;;;;;;;34.38;14.23;;;;;;;5.70;100.00;95987.53;5027270;28;20126;-55
2022/11/18 04:46:42;;;;;;;31.48;13.15;;;;;;;5.64;100.00;95990.94;5026493;28;20100;-63
2022/11/18 04:49:10;;;;;;;22.52;9.30;;;;;;;5.41;100.00;95998.31;5025532;28;20138;-63
2022/11/18 04:51:36;;;;;;;17.25;9.00;;;;;;;4.76;100.00;95999.31;5025034;28;20081;-55
2022/11/18 04:54:04;;;;;;;37.00;10.23;;;;;;;4.59;100.00;96001.31;5026318;28;20045;-64
2022/11/18 04:56:30;;;;;;;26.48;10.20;;;;;;;4.81;100.00;95996.28;5024791;28;20053;-63
2022/11/18 04:58:59;;;;;;;24.08;9.60;;;;;;;4.94;100.00;96005.97;5026787;28;20122;-64
2022/11/18 05:01:27;;;;;;;19.83;9.35;;;;;;;4.92;100.00;96008.28;5026442;28;20820;-64
2022/11/18 05:03:55;;;;;;;17.25;8.35;;;;;;;4.62;100.00;96005.25;5026300;28;20535;-62
2022/11/18 05:06:22;;;;;;;16.55;9.30;;;;;;;4.62;100.00;96011.56;5026139;28;20574;-59
2022/11/18 05:08:48;;;;;;;20.48;10.88;;;;;;;4.77;100.00;96011.88;5024987;28;20107;-57
2022/11/18 05:14:01;;;;;;;34.03;16.77;;;;;;;4.66;100.00;96026.13;5026210;28;20142;-64
2022/11/18 05:16:27;;;;;;;22.48;12.93;;;;;;;4.40;100.00;95979.31;5026373;28;20652;-63
2022/11/18 05:18:54;;;;;;;25.27;13.57;;;;;;;4.34;100.00;95945.13;5026367;28;20049;-56
2022/11/18 05:21:20;;;;;;;30.40;15.15;;;;;;;4.81;100.00;96018.22;5024922;28;20589;-63
2022/11/18 05:23:47;;;;;;;26.55;13.63;;;;;;;4.94;100.00;96033.41;5025085;28;20405;-57
2022/11/18 05:26:14;;;;;;;30.75;16.13;;;;;;;5.10;100.00;96032.22;5026124;28;20047;-56
2022/11/18 05:28:40;;;;;;;38.70;17.45;;;;;;;5.26;100.00;96035.69;5025458;28;20144;-65
2022/11/18 05:31:09;;;;;;;25.00;14.20;;;;;;;5.24;100.00;96026.22;5026134;28;20049;-65
2022/11/18 05:33:36;;;;;;;21.85;11.18;;;;;;;5.14;100.00;96032.28;5025544;28;20053;-65
2022/11/18 05:36:09;;;;;;;26.42;11.60;;;;;;;5.24;100.00;96038.00;5025178;28;20056;-65
2022/11/18 05:38:36;;;;;;;32.05;12.85;;;;;;;5.21;100.00;96022.25;5025763;28;20054;-64
2022/11/18 05:41:03;;;;;;;32.53;13.05;;;;;;;5.34;100.00;96020.16;5025507;28;20045;-64
2022/11/18 05:43:31;;;;;;;33.90;15.00;;;;;;;5.41;100.00;96014.78;5025530;28;20409;-57
2022/11/18 05:45:58;;;;;;;35.45;17.92;;;;;;;5.35;100.00;96005.25;5025372;28;20061;-65
2022/11/18 05:48:25;;;;;;;30.85;15.63;;;;;;;5.58;100.00;96025.34;5025528;28;20053;-65
2022/11/18 05:50:53;;;;;;;31.63;17.83;;;;;;;5.37;100.00;95967.28;5025446;28;20049;-65
2022/11/18 05:53:22;;;;;;;26.13;12.25;;;;;;;4.95;100.00;95996.59;5025670;28;20065;-56
2022/11/18 05:56:04;;;;;;;36.03;16.05;;;;;;;5.28;100.00;96025.13;5023279;28;20054;-56
2022/11/18 05:58:30;;;;;;;37.88;18.63;;;;;;;5.43;100.00;96017.97;5025570;28;20136;-65
2022/11/18 06:01:02;;;;;;;44.42;20.10;;;;;;;5.63;100.00;96022.28;5025141;28;20057;-65
2022/11/18 06:03:31;;;;;;;65.20;27.40;;;;;;;5.82;100.00;96030.53;5025622;28;20111;-65
2022/11/18 06:06:01;;;;;;;50.90;23.20;;;;;;;6.05;100.00;96020.38;5025364;28;20076;-65
2022/11/18 06:08:44;;;;;;;60.90;21.15;;;;;;;6.04;100.00;96025.06;5025294;28;20502;-65
2022/11/18 06:11:14;;;;;;;36.45;16.02;;;;;;;5.77;100.00;96026.09;5024711;28;20084;-56
2022/11/18 06:13:49;;;;;;;38.42;16.17;;;;;;;5.94;100.00;96027.63;5025412;28;20065;-55
2022/11/18 06:16:22;;;;;;;45.88;20.58;;;;;;;6.16;100.00;96035.09;5024696;28;20056;-65
2022/11/18 06:18:49;;;;;;;;;;;;;;;6.22;100.00;96028.13;5025375;28;20085;-56
2022/11/18 06:21:16;;;;;;;48.25;23.90;;;;;;;6.51;100.00;96107.22;5024795;28;20030;-65
2022/11/18 06:23:43;;;;;;;60.38;25.25;;;;;;;6.83;100.00;96036.97;5024959;28;20115;-56
2022/11/18 06:26:12;;;;;;;55.08;25.30;;;;;;;6.65;100.00;96035.91;5023418;28;20498;-65
2022/11/18 06:28:40;;;;;;;66.88;40.03;;;;;;;7.01;100.00;96027.00;5024616;28;20045;-56
2022/11/18 06:31:06;;;;;;;70.53;34.70;;;;;;;7.45;100.00;96033.50;5024619;28;20204;-65
2022/11/18 06:33:33;;;;;;;62.33;32.50;;;;;;;7.76;100.00;96039.78;5024254;28;20053;-65
2022/11/18 06:35:59;;;;;;;64.68;32.40;;;;;;;7.91;100.00;96036.00;5024253;28;20053;-55
2022/11/18 06:38:26;;;;;;;53.50;28.95;;;;;;;8.17;100.00;96017.34;5018038;28;20459;-57
2022/11/18 06:40:57;;;;;;;55.75;30.15;;;;;;;8.39;100.00;95996.31;5022707;28;20130;-61
2022/11/18 06:43:40;;;;;;;49.30;28.50;;;;;;;8.85;100.00;96042.41;5024405;28;20061;-62
2022/11/18 06:48:59;;;;;;;39.55;23.27;;;;;;;8.89;100.00;95976.16;5016084;28;20057;-62
2022/11/18 06:51:26;;;;;;;35.85;19.98;;;;;;;8.97;100.00;95939.13;5024305;28;20130;-62
2022/11/18 06:53:53;;;;;;;37.88;24.20;;;;;;;9.30;100.00;95963.75;5023208;28;20151;-60
2022/11/18 06:56:21;;;;;;;42.45;24.63;;;;;;;9.90;100.00;96019.25;5022682;28;20127;-61
2022/11/18 06:58:57;;;;;;;36.28;24.25;;;;;;;10.04;100.00;96014.56;5023805;28;20448;-56
2022/11/18 07:01:26;;;;;;;38.95;25.63;;;;;;;10.17;98.25;96017.78;5038211;28;20456;-58
2022/11/18 07:08:36;;;;;;;33.90;23.35;;;;;;;9.90;96.16;95879.00;5058037;28;20971;-59
2022/11/18 07:11:04;;;;;;;30.98;22.40;;;;;;;10.68;94.20;95971.16;5060040;28;20089;-58
2022/11/18 07:13:32;;;;;;;34.33;22.35;;;;;;;10.86;93.35;95987.75;5059300;28;20106;-54
2022/11/18 07:16:13;;;;;;;32.38;20.33;;;;;;;10.51;94.69;95884.13;5030865;28;20535;-59
2022/11/18 07:18:41;;;;;;;23.88;16.25;;;;;;;11.30;95.79;95961.13;5038122;28;20106;-59
2022/11/18 07:21:10;;;;;;;16.95;12.32;;;;;;;11.73;95.43;95995.03;5037126;28;20053;-57
2022/11/18 07:23:37;;;;;;;14.13;10.35;;;;;;;11.79;95.00;95994.22;5038139;28;20097;-60
2022/11/18 07:26:04;;;;;;;16.60;10.63;;;;;;;11.89;95.59;95973.16;5033594;28;20371;-60
2022/11/18 07:28:31;;;;;;;15.32;11.55;;;;;;;11.83;96.12;95952.59;5047953;28;20542;-58
2022/11/18 07:31:06;;;;;;;15.88;11.60;;;;;;;11.99;97.03;95955.69;5038024;28;20049;-55
2022/11/18 07:33:33;;;;;;;21.73;14.93;;;;;;;11.82;96.56;95907.41;5038345;28;20103;-55
2022/11/18 07:36:04;;;;;;;21.45;14.18;;;;;;;12.31;95.21;95928.50;5037169;28;20055;-60
2022/11/18 07:38:31;;;;;;;20.85;13.13;;;;;;;12.25;94.56;95899.56;5039867;28;20052;-62
2022/11/18 07:41:26;;;;;;;14.35;10.30;;;;;;;13.09;92.85;95973.84;5042434;28;20110;-62
2022/11/18 07:43:54;;;;;;;12.35;8.15;;;;;;;13.20;91.60;95976.53;5020337;28;20045;-60
2022/11/18 07:46:27;;;;;;;;;;;;;;;13.15;92.02;95974.97;5038214;28;20053;-60
2022/11/18 07:48:56;;;;;;;15.13;11.20;;;;;;;13.22;92.69;95966.56;5023636;28;20802;-59
2022/11/18 07:51:29;;;;;;;20.38;12.85;;;;;;;13.35;92.01;95964.06;5020918;28;20057;-59
2022/11/18 07:53:56;;;;;;;18.13;13.10;;;;;;;11.30;90.97;95652.66;5037558;28;20130;-56
2022/11/18 07:56:23;;;;;;;30.52;19.85;;;;;;;11.28;90.96;95599.59;5039350;28;20105;-61
2022/11/18 07:58:54;;;;;;;33.53;21.52;;;;;;;13.45;90.46;95924.97;5023757;28;20140;-59
2022/11/18 08:01:29;;;;;;;29.58;19.25;;;;;;;12.72;89.75;95843.22;5022523;28;20115;-58
2022/11/18 08:04:03;;;;;;;29.35;20.35;;;;;;;11.52;89.92;95609.69;5022374;28;20055;-58
2022/11/18 08:06:32;;;;;;;27.88;16.73;;;;;;;13.04;88.49;95826.19;5022395;28;20065;-62
2022/11/18 08:08:59;;;;;;;24.58;17.15;;;;;;;13.33;88.54;95860.78;5023475;28;20041;-59
2022/11/18 08:11:26;;;;;;;24.08;16.17;;;;;;;13.38;88.26;95863.88;5022200;28;20053;-61
2022/11/18 08:13:52;;;;;;;24.15;15.05;;;;;;;14.19;86.73;95951.84;5019635;28;20188;-58
2022/11/18 08:16:21;;;;;;;18.63;13.57;;;;;;;14.29;86.40;95955.72;5024528;28;20057;-58
2022/11/18 08:18:49;;;;;;;18.80;13.27;;;;;;;13.78;86.39;95869.72;5024165;28;20060;-62
2022/11/18 08:21:18;;;;;;;16.10;13.15;;;;;;;13.89;85.49;95864.78;5007001;28;20045;-58
2022/11/18 08:23:49;;;;;;;18.73;12.40;;;;;;;14.46;86.52;95943.50;5015834;28;20053;-62
2022/11/18 08:26:16;;;;;;;19.20;13.13;;;;;;;14.52;86.43;95931.44;5026418;28;20059;-60
2022/11/18 08:28:44;;;;;;;22.67;14.93;;;;;;;14.10;84.99;95837.38;5020982;28;20057;-61
2022/11/18 08:31:20;;;;;;;18.58;13.10;;;;;;;14.32;85.59;95943.72;5029079;28;20053;-63
2022/11/18 08:33:47;;;;;;;19.70;12.75;;;;;;;14.63;84.26;95906.19;5017260;28;20077;-61
2022/11/18 08:36:19;;;;;;;14.60;11.35;;;;;;;14.71;83.10;95907.63;5026129;28;20106;-56
2022/11/18 08:38:46;;;;;;;14.18;11.30;;;;;;;14.96;82.79;95919.94;5011908;28;20050;-57
2022/11/18 08:41:15;;;;;;;15.70;12.10;;;;;;;14.73;82.34;95863.41;5008310;28;20500;-56
2022/11/18 08:43:42;;;;;;;14.82;11.32;;;;;;;15.52;81.03;95948.00;5022152;28;20056;-60
2022/11/18 08:46:08;;;;;;;15.55;10.77;;;;;;;14.92;80.79;95848.72;5027708;28;20067;-62
2022/11/18 08:48:35;;;;;;;12.48;10.00;;;;;;;14.75;79.45;95788.50;5027149;28;20527;-61
2022/11/18 08:51:03;;;;;;;15.30;11.38;;;;;;;14.85;79.57;95848.84;5024215;28;20584;-56
2022/11/18 08:53:31;;;;;;;17.92;10.90;;;;;;;15.56;80.08;95943.91;5014619;28;20469;-57
2022/11/18 08:55:59;;;;;;;14.70;10.93;;;;;;;15.70;79.97;95929.66;5028292;28;20058;-57
2022/11/18 08:58:26;;;;;;;16.13;10.63;;;;;;;15.42;80.37;95921.88;5013312;28;20136;-56
2022/11/18 09:00:53;;;;;;;10.25;8.90;;;;;;;15.30;80.86;95936.41;5005951;28;20053;-57
2022/11/18 09:03:20;;;;;;;13.05;8.23;;;;;;;15.35;80.47;95921.97;5007780;28;20110;-62
2022/11/18 09:05:47;;;;;;;10.65;7.10;;;;;;;15.80;78.58;95925.06;5006935;28;20103;-62
2022/11/18 09:08:14;;;;;;;13.35;8.48;;;;;;;15.63;79.31;95884.38;5007155;28;20111;-61
2022/11/18 09:10:41;;;;;;;10.55;7.05;;;;;;;15.93;79.08;95926.75;5008932;28;20315;-58
2022/11/18 09:13:08;;;;;;;10.25;8.00;;;;;;;15.77;79.85;95898.81;5008089;28;20266;-61
2022/11/18 09:15:57;;;;;;;8.40;6.72;;;;;;;16.00;79.25;95911.88;5008458;28;20148;-56
2022/11/18 09:18:24;;;;;;;12.68;8.40;;;;;;;15.65;80.49;95857.59;5007716;28;20080;-62
2022/11/18 09:21:01;;;;;;;9.20;6.68;;;;;;;16.51;77.85;95913.91;5008041;28;20135;-62
2022/11/18 09:23:29;;;;;;;10.48;6.97;;;;;;;16.26;76.33;95894.91;5008238;28;20564;-58
2022/11/18 09:26:09;;;;;;;12.57;7.15;;;;;;;16.35;77.99;95909.06;5007473;28;20559;-59
2022/11/18 09:28:36;;;;;;;6.47;5.70;;;;;;;16.26;76.71;95869.75;5009594;28;20060;-57
2022/11/18 09:31:14;;;;;;;7.03;5.93;;;;;;;16.48;76.58;95943.53;5016059;28;20045;-62
2022/11/18 09:33:41;;;;;;;7.05;6.22;;;;;;;16.47;77.85;95936.34;5018783;28;20928;-57
2022/11/18 09:36:20;;;;;;;7.65;6.85;;;;;;;16.27;77.95;95842.56;5017947;28;20050;-56
2022/11/18 09:38:47;;;;;;;9.77;6.03;;;;;;;16.89;75.87;95877.78;5023108;28;20060;-59
2022/11/18 09:41:46;;;;;;;10.63;7.55;;;;;;;17.03;75.44;95889.38;5026380;28;20518;-60
2022/11/18 09:44:29;;;;;;;14.50;9.35;;;;;;;17.20;76.44;95881.75;5024295;28;20148;-66
2022/11/18 09:47:05;;;;;;;10.40;7.45;;;;;;;17.27;74.06;95867.56;5010002;28;20490;-68
2022/11/18 09:49:37;;;;;;;9.15;7.90;;;;;;;17.21;74.38;95816.16;5026953;28;20570;-65
2022/11/18 09:52:30;;;;;;;10.05;7.18;;;;;;;17.57;73.07;95850.31;5028130;28;20428;-65
2022/11/18 09:55:10;;;;;;;8.95;6.47;;;;;;;17.58;73.08;95840.66;5025346;28;20049;-56
2022/11/18 09:57:40;;;;;;;15.25;9.50;;;;;;;17.62;71.80;95841.38;5022483;28;20048;-57
2022/11/18 10:00:17;;;;;;;20.25;11.60;;;;;;;17.33;71.28;95773.41;5019860;28;20128;-56
2022/11/18 10:03:06;;;;;;;9.43;6.55;;;;;;;17.87;70.48;95847.81;5019822;28;20099;-59
2022/11/18 10:05:42;;;;;;;7.38;6.22;;;;;;;17.96;71.93;95844.31;5031585;28;20500;-56
2022/11/18 10:08:30;;;;;;;10.98;6.78;;;;;;;17.81;69.66;95792.78;5032298;28;20096;-56
2022/11/18 10:11:15;;;;;;;7.00;5.22;;;;;;;17.87;69.00;95821.78;5023411;28;20057;-56
2022/11/18 10:13:55;;;;;;;6.28;5.10;;;;;;;17.79;69.83;95828.84;5024727;28;20088;-62
2022/11/18 10:16:34;;;;;;;9.05;6.55;;;;;;;16.85;70.58;95658.94;5024206;28;20053;-61
2022/11/18 10:19:22;;;;;;;10.10;5.60;;;;;;;18.23;69.47;95824.25;5024514;28;20061;-59
2022/11/18 10:22:04;;;;;;;9.13;6.97;;;;;;;18.26;69.93;95810.13;5024650;28;20065;-56
2022/11/18 10:24:42;;;;;;;10.30;6.15;;;;;;;18.24;68.64;95809.00;5033691;28;20114;-60
2022/11/18 10:27:14;;;;;;;13.75;8.77;;;;;;;17.90;69.58;95762.06;5025142;28;20080;-61
2022/11/18 10:29:42;;;;;;;25.40;7.50;;;;;;;18.24;69.81;95781.75;5032070;28;20041;-57
2022/11/18 10:32:15;;;;;;;15.40;8.52;;;;;;;18.15;69.05;95781.66;5029815;28;20053;-63
2022/11/18 10:34:54;;;;;;;15.50;7.18;;;;;;;17.81;71.28;95784.38;5030361;28;20498;-58
2022/11/18 10:37:32;;;;;;;8.02;6.40;;;;;;;18.21;70.41;95827.50;5022832;28;20142;-59
2022/11/18 10:40:24;;;;;;;9.25;7.07;;;;;;;17.61;70.75;95733.38;5002772;28;20081;-59
2022/11/18 10:42:51;;;;;;;6.70;5.93;;;;;;;17.67;69.58;95731.59;5043336;28;20044;-60
2022/11/18 10:45:29;;;;;;;10.27;6.55;;;;;;;17.98;70.15;95758.59;5043802;28;20126;-60
2022/11/18 10:48:16;;;;;;;14.38;8.77;;;;;;;16.92;72.24;95586.00;5043879;28;20126;-61
2022/11/18 10:50:49;;;;;;;23.42;11.88;;;;;;;17.98;71.30;95757.78;5039981;28;20107;-60
2022/11/18 10:53:35;;;;;;;11.00;7.05;;;;;;;17.62;71.12;95751.75;5019136;28;20125;-62
2022/11/18 10:56:06;;;;;;;17.00;9.00;;;;;;;18.03;70.39;95760.03;5034530;28;20064;-58
2022/11/18 10:58:41;;;;;;;16.70;10.50;;;;;;;17.75;70.97;95739.31;5042143;28;20057;-59
2022/11/18 11:01:23;;;;;;;16.52;9.73;;;;;;;17.55;71.57;95691.16;5014336;28;20570;-62
2022/11/18 11:04:03;;;;;;;17.10;9.57;;;;;;;18.25;71.90;95738.47;5028445;28;20839;-59
2022/11/18 11:06:37;;;;;;;12.80;8.07;;;;;;;18.30;69.04;95695.84;5023496;28;20049;-62
2022/11/18 11:09:08;;;;;;;10.55;7.60;;;;;;;18.26;69.58;95739.28;5035583;28;20068;-61
2022/11/18 11:11:53;;;;;;;11.52;7.55;;;;;;;18.02;70.62;95742.44;5043447;28;20158;-57
2022/11/18 11:14:29;;;;;;;13.75;9.52;;;;;;;18.04;70.93;95750.38;5027015;28;20049;-61
2022/11/18 11:17:18;;;;;;;18.38;11.48;;;;;;;17.89;71.32;95743.69;5031599;28;20064;-57
2022/11/18 11:19:58;;;;;;;13.30;8.63;;;;;;;15.95;69.08;95371.38;5004737;28;20168;-61
2022/11/18 11:22:24;;;;;;;13.35;8.82;;;;;;;18.46;68.18;95732.19;5018954;28;20065;-57
2022/11/18 11:24:51;;;;;;;15.63;9.90;;;;;;;18.22;69.20;95711.34;5030002;28;20049;-58
2022/11/18 11:27:36;;;;;;;10.57;7.07;;;;;;;18.92;67.27;95739.72;5039538;28;20132;-60
2022/11/18 11:30:23;;;;;;;13.75;9.10;;;;;;;17.03;66.17;95452.16;5019240;28;20081;-59
2022/11/18 11:33:09;;;;;;;14.68;10.07;;;;;;;19.30;65.20;95737.53;5039367;28;20084;-59
2022/11/18 11:36:00;;;;;;;8.82;7.25;;;;;;;19.37;62.21;95728.84;5022827;28;20092;-60
2022/11/18 11:38:39;;;;;;;6.70;6.00;;;;;;;19.18;63.71;95729.16;5026930;28;20083;-60
2022/11/18 11:41:20;;;;;;;9.25;6.50;;;;;;;19.40;63.59;95739.16;5031296;28;20056;-61
2022/11/18 11:44:21;;;;;;;9.25;6.25;;;;;;;19.70;62.02;95733.97;5020586;28;20057;-59
2022/11/18 11:47:45;;;;;;;7.43;6.60;;;;;;;19.71;62.14;95718.69;5024161;28;20622;-62
2022/11/18 11:49:45;;;;;;;6.63;5.45;;;;;;;19.82;60.53;95719.06;5026555;28;20126;-60
2022/11/18 11:52:20;;;;;;;7.32;6.63;;;;;;;18.91;61.59;95653.97;5040820;28;20068;-61
2022/11/18 11:55:16;;;;;;;6.90;6.00;;;;;;;18.90;64.11;95724.59;5027587;28;20075;-60
2022/11/18 11:58:01;;;;;;;12.50;8.13;;;;;;;19.08;64.97;95719.88;5033152;28;20132;-59
2022/11/18 12:00:32;;;;;;;18.10;11.20;;;;;;;18.31;65.18;95623.72;5045522;28;20076;-58